Time;durP1;ratioP1;P1;durP2;ratioP2;P2;SDS_P1;SDS_P2;PMS_P1;PMS_P2;Temp;Humidity;BMP_temperature;BMP_pressure;BME280_temperature;BME280_humidity;BME280_pressure;Samples;Min_cycle;Max_cycle;Signal;HPM_P1;HPM_P2
2023/12/26 00:01:36;;;;;;;0.35;0.30;;;11.40;95.00;;;;;;5053689;28;20077;-62
2023/12/26 00:04:02;;;;;;;0.85;0.50;;;11.40;95.10;;;;;;5053747;28;20105;-62
2023/12/26 00:06:27;;;;;;;0.55;0.40;;;11.30;94.90;;;;;;5053989;28;20123;-62
2023/12/26 00:08:53;;;;;;;0.82;0.30;;;11.30;94.90;;;;;;5053447;28;20025;-62
2023/12/26 00:11:19;;;;;;;0.50;0.50;;;11.30;95.00;;;;;;5052259;28;20473;-62
2023/12/26 00:13:44;;;;;;;1.17;0.52;;;11.30;94.90;;;;;;5053548;28;20100;-61
2023/12/26 00:16:10;;;;;;;1.83;0.98;;;11.30;95.10;;;;;;5053769;28;20025;-62
2023/12/26 00:18:36;;;;;;;0.55;0.30;;;11.30;94.40;;;;;;5053342;28;20060;-61
2023/12/26 00:21:02;;;;;;;1.20;0.40;;;11.40;94.40;;;;;;5053367;28;20026;-62
2023/12/26 00:23:27;;;;;;;1.67;0.22;;;11.40;94.50;;;;;;5053035;28;20448;-62
2023/12/26 00:25:53;;;;;;;1.02;0.40;;;11.40;94.50;;;;;;5053295;28;20103;-62
2023/12/26 00:28:19;;;;;;;0.60;0.30;;;11.30;94.60;;;;;;5053311;28;20056;-62
2023/12/26 00:30:45;;;;;;;0.73;0.50;;;11.30;94.50;;;;;;5053287;28;20061;-61
2023/12/26 00:33:11;;;;;;;2.58;0.38;;;;;;;;;;5053299;28;20092;-62
2023/12/26 00:35:37;;;;;;;1.90;0.45;;;11.30;94.40;;;;;;5056990;28;20067;-62
2023/12/26 00:38:03;;;;;;;0.57;0.40;;;11.30;94.40;;;;;;5056621;28;20447;-62
2023/12/26 00:40:28;;;;;;;1.55;0.30;;;11.30;94.40;;;;;;5056897;28;20431;-62
2023/12/26 00:42:54;;;;;;;0.65;0.30;;;11.30;94.40;;;;;;5056637;28;20461;-62
2023/12/26 00:45:22;;;;;;;2.40;0.43;;;11.30;94.10;;;;;;5056905;28;20107;-62
2023/12/26 00:47:48;;;;;;;0.30;0.30;;;11.30;94.10;;;;;;5056600;28;20542;-62
2023/12/26 00:50:16;;;;;;;0.88;0.30;;;11.30;94.00;;;;;;5056648;28;20147;-62
2023/12/26 00:52:42;;;;;;;0.40;0.30;;;11.30;93.90;;;;;;5056249;28;20511;-61
2023/12/26 00:55:08;;;;;;;0.75;0.38;;;11.30;93.90;;;;;;5056691;28;20021;-62
2023/12/26 00:57:34;;;;;;;1.00;0.30;;;11.30;94.10;;;;;;5056660;28;20033;-62
2023/12/26 01:00:00;;;;;;;0.95;0.43;;;11.30;94.00;;;;;;5056409;28;20488;-62
2023/12/26 01:02:26;;;;;;;1.73;0.50;;;11.30;94.10;;;;;;5056915;28;20415;-62
2023/12/26 01:04:52;;;;;;;0.98;0.45;;;11.30;94.20;;;;;;5057688;28;20029;-68
2023/12/26 01:07:17;;;;;;;1.75;0.45;;;11.20;94.10;;;;;;5056425;28;20028;-63
2023/12/26 01:09:43;;;;;;;0.68;0.50;;;11.20;94.20;;;;;;5057207;28;20025;-62
2023/12/26 01:12:10;;;;;;;0.47;0.40;;;11.10;94.70;;;;;;5056307;28;20381;-62
2023/12/26 01:14:35;;;;;;;1.95;0.30;;;11.00;94.80;;;;;;5056299;28;20025;-62
2023/12/26 01:17:01;;;;;;;0.77;0.20;;;11.00;94.70;;;;;;5054942;28;20036;-62
2023/12/26 01:19:27;;;;;;;1.23;0.38;;;10.90;95.70;;;;;;5056209;28;20036;-62
2023/12/26 01:21:53;;;;;;;0.65;0.43;;;10.90;94.40;;;;;;5055867;28;20488;-62
2023/12/26 01:24:18;;;;;;;1.65;0.20;;;11.00;93.90;;;;;;5056137;28;20025;-61
2023/12/26 01:26:44;;;;;;;0.77;0.20;;;11.20;93.80;;;;;;5055817;28;20029;-61
2023/12/26 01:29:10;;;;;;;0.77;0.30;;;11.20;93.70;;;;;;5056184;28;20075;-62
2023/12/26 01:31:36;;;;;;;0.52;0.30;;;11.20;93.50;;;;;;5056212;28;20033;-62
2023/12/26 01:34:06;;;;;;;1.20;0.20;;;11.20;93.50;;;;;;5054377;28;20033;-61
2023/12/26 01:36:32;;;;;;;0.40;0.30;;;11.30;92.80;;;;;;5055824;28;20362;-62
2023/12/26 01:38:58;;;;;;;0.20;0.10;;;11.30;92.80;;;;;;5054658;28;20032;-62
2023/12/26 01:41:24;;;;;;;0.45;0.30;;;11.30;93.50;;;;;;5056073;28;20029;-62
2023/12/26 01:43:49;;;;;;;0.47;0.13;;;11.30;92.60;;;;;;5055753;28;20025;-62
2023/12/26 01:46:16;;;;;;;0.30;0.17;;;11.30;92.60;;;;;;5054640;28;20021;-62
2023/12/26 01:48:45;;;;;;;2.05;0.13;;;11.30;93.10;;;;;;5055741;28;20025;-62
2023/12/26 01:51:13;;;;;;;1.58;0.25;;;11.20;92.70;;;;;;5055325;28;20541;-62
2023/12/26 01:53:39;;;;;;;0.87;0.17;;;11.20;94.20;;;;;;5056243;28;20045;-62
2023/12/26 01:56:10;;;;;;;0.20;0.10;;;11.10;92.90;;;;;;5055439;28;20083;-62
2023/12/26 01:58:36;;;;;;;1.02;0.17;;;11.20;93.00;;;;;;5055537;28;20040;-62
2023/12/26 02:01:04;;;;;;;1.92;0.30;;;11.20;92.20;;;;;;5055488;28;20040;-62
2023/12/26 02:03:30;;;;;;;0.73;0.22;;;11.10;93.30;;;;;;5055423;28;20021;-62
2023/12/26 02:05:58;;;;;;;0.85;0.20;;;11.20;92.30;;;;;;5055064;28;20405;-62
2023/12/26 02:08:24;;;;;;;1.48;0.20;;;11.20;92.90;;;;;;5055556;28;20086;-62
2023/12/26 02:10:49;;;;;;;0.57;0.30;;;11.10;92.60;;;;;;5055104;28;20025;-62
2023/12/26 02:13:15;;;;;;;0.32;0.17;;;11.10;92.60;;;;;;5055493;28;20025;-62
2023/12/26 02:15:42;;;;;;;0.47;0.10;;;11.00;92.50;;;;;;5055015;28;20025;-62
2023/12/26 02:18:08;;;;;;;0.20;0.20;;;11.10;91.40;;;;;;5055069;28;20108;-62
2023/12/26 02:20:33;;;;;;;0.30;0.10;;;11.10;91.20;;;;;;5053732;28;20490;-61
2023/12/26 02:22:59;;;;;;;1.23;0.10;;;11.20;90.40;;;;;;5055145;28;20036;-62
2023/12/26 02:25:24;;;;;;;0.77;0.20;;;11.20;90.30;;;;;;5054872;28;20025;-62
2023/12/26 02:27:51;;;;;;;0.40;0.22;;;11.20;90.30;;;;;;5054609;28;20111;-62
2023/12/26 02:30:17;;;;;;;1.70;0.30;;;11.10;91.80;;;;;;5054890;28;20047;-62
2023/12/26 02:32:46;;;;;;;0.30;0.10;;;11.00;91.70;;;;;;5054595;28;20091;-62
2023/12/26 02:35:12;;;;;;;0.98;0.17;;;11.10;88.10;;;;;;5054727;28;20465;-62
2023/12/26 02:37:38;;;;;;;0.40;0.40;;;11.10;89.70;;;;;;5054394;28;20455;-62
2023/12/26 02:40:04;;;;;;;0.30;0.10;;;11.10;90.60;;;;;;5054748;28;20029;-62
2023/12/26 02:42:30;;;;;;;0.57;0.35;;;11.00;87.60;;;;;;5054649;28;20116;-62
2023/12/26 02:44:56;;;;;;;0.63;0.52;;;11.10;88.90;;;;;;5053316;28;20067;-63
2023/12/26 02:47:23;;;;;;;0.50;0.17;;;11.10;89.90;;;;;;5054781;28;20476;-62
2023/12/26 02:49:49;;;;;;;0.73;0.20;;;10.90;90.90;;;;;;5054747;28;20021;-62
2023/12/26 02:52:14;;;;;;;0.80;0.32;;;10.80;90.50;;;;;;5054258;28;20531;-62
2023/12/26 02:54:40;;;;;;;1.33;0.17;;;10.80;89.80;;;;;;5053188;28;20029;-62
2023/12/26 02:57:06;;;;;;;1.75;0.20;;;10.70;90.30;;;;;;5052648;28;20123;-62
2023/12/26 02:59:31;;;;;;;0.95;0.38;;;10.80;86.70;;;;;;5054036;28;20499;-61
2023/12/26 03:02:00;;;;;;;1.73;0.10;;;10.90;87.70;;;;;;5053331;28;20487;-62
2023/12/26 03:04:26;;;;;;;0.70;0.10;;;10.90;90.50;;;;;;5052973;28;20032;-62
2023/12/26 03:06:55;;;;;;;0.73;0.10;;;10.80;87.00;;;;;;5053141;28;20078;-62
2023/12/26 03:09:22;;;;;;;0.65;0.20;;;10.90;87.40;;;;;;5052900;28;20453;-62
2023/12/26 03:11:47;;;;;;;1.15;0.13;;;10.90;89.20;;;;;;5054263;28;20031;-62
2023/12/26 03:14:14;;;;;;;4.47;0.40;;;10.90;86.10;;;;;;5054170;28;20024;-62
2023/12/26 03:16:40;;;;;;;0.90;0.10;;;10.80;87.00;;;;;;5052767;28;20029;-62
2023/12/26 03:19:06;;;;;;;0.40;0.20;;;10.90;83.10;;;;;;5054061;28;20536;-62
2023/12/26 03:21:31;;;;;;;0.30;0.13;;;11.00;81.40;;;;;;5054022;28;20522;-62
2023/12/26 03:23:57;;;;;;;3.45;0.85;;;11.10;86.20;;;;;;5053708;28;20100;-62
2023/12/26 03:26:23;;;;;;;0.10;0.10;;;11.00;84.40;;;;;;5053957;28;20431;-62
2023/12/26 03:28:48;;;;;;;0.35;0.10;;;11.00;80.10;;;;;;5054022;28;20021;-62
2023/12/26 03:31:14;;;;;;;0.22;0.20;;;11.00;80.50;;;;;;5053854;28;20025;-62
2023/12/26 03:33:40;;;;;;;0.43;0.20;;;11.00;81.30;;;;;;5052787;28;20405;-62
2023/12/26 03:36:07;;;;;;;0.32;0.20;;;11.10;77.60;;;;;;5052276;28;20025;-62
2023/12/26 03:38:33;;;;;;;0.15;0.15;;;11.10;77.60;;;;;;5053433;28;20479;-62
2023/12/26 03:41:00;;;;;;;0.40;0.20;;;11.00;81.20;;;;;;5053478;28;20116;-62
2023/12/26 03:43:25;;;;;;;0.52;0.20;;;10.80;84.30;;;;;;5053821;28;20368;-62
2023/12/26 03:45:51;;;;;;;0.20;0.10;;;10.50;86.00;;;;;;5053978;28;20060;-62
2023/12/26 03:48:17;;;;;;;1.90;0.32;;;10.20;87.60;;;;;;5053693;28;20025;-61
2023/12/26 03:50:42;;;;;;;1.08;0.38;;;10.00;88.40;;;;;;5053675;28;20025;-62
2023/12/26 03:53:08;;;;;;;4.50;0.20;;;9.80;90.60;;;;;;5053971;28;20045;-62
2023/12/26 03:55:34;;;;;;;1.10;0.20;;;9.50;91.40;;;;;;5052027;28;20389;-62
2023/12/26 03:58:00;;;;;;;0.55;0.20;;;9.30;91.30;;;;;;5053617;28;20151;-61
2023/12/26 04:00:28;;;;;;;0.17;0.17;;;9.20;91.60;;;;;;5053692;28;20033;-62
2023/12/26 04:02:53;;;;;;;1.10;0.20;;;9.10;92.40;;;;;;5053797;28;20025;-62
2023/12/26 04:05:19;;;;;;;0.40;0.20;;;8.90;93.10;;;;;;5053231;28;20033;-62
2023/12/26 04:07:46;;;;;;;2.67;0.22;;;8.80;93.50;;;;;;5053213;28;20112;-61
2023/12/26 04:10:11;;;;;;;0.20;0.10;;;8.60;94.20;;;;;;5056698;28;20036;-62
2023/12/26 04:12:37;;;;;;;0.30;0.20;;;8.50;94.70;;;;;;5057880;28;20025;-62
2023/12/26 04:15:03;;;;;;;0.60;0.10;;;8.40;95.20;;;;;;5057470;28;20534;-61
2023/12/26 04:17:29;;;;;;;0.20;0.10;;;8.30;95.90;;;;;;5056095;28;20484;-62
2023/12/26 04:19:55;;;;;;;1.80;0.20;;;8.20;96.20;;;;;;5057708;28;20033;-62
2023/12/26 04:22:20;;;;;;;0.22;0.20;;;8.10;96.50;;;;;;5058154;28;20032;-61
2023/12/26 04:24:46;;;;;;;0.93;0.30;;;8.00;96.80;;;;;;5058006;28;20021;-61
2023/12/26 04:27:12;;;;;;;0.10;0.10;;;8.00;97.00;;;;;;5056311;28;20357;-61
2023/12/26 04:29:37;;;;;;;0.57;0.32;;;7.90;97.50;;;;;;5057239;28;20033;-61
2023/12/26 04:32:03;;;;;;;0.40;0.30;;;7.80;97.30;;;;;;5055816;28;20082;-62
2023/12/26 04:34:29;;;;;;;2.05;0.63;;;7.80;97.00;;;;;;5057457;28;20029;-61
2023/12/26 04:36:55;;;;;;;0.85;0.20;;;7.80;96.70;;;;;;5057079;28;20067;-61
2023/12/26 04:39:20;;;;;;;0.70;0.30;;;7.80;97.90;;;;;;5055764;28;20032;-61
2023/12/26 04:41:49;;;;;;;4.85;0.20;;;7.80;97.10;;;;;;5056996;28;20025;-61
2023/12/26 04:44:15;;;;;;;1.38;0.10;;;7.90;92.60;;;;;;5055780;28;20021;-61
2023/12/26 04:46:40;;;;;;;0.20;0.20;;;8.20;92.50;;;;;;5056964;28;20389;-61
2023/12/26 04:49:06;;;;;;;0.57;0.15;;;8.50;91.60;;;;;;5057236;28;20029;-61
2023/12/26 04:51:32;;;;;;;0.50;0.32;;;9.10;88.00;;;;;;5056890;28;20461;-62
2023/12/26 04:53:58;;;;;;;1.17;0.30;;;9.60;84.20;;;;;;5055930;28;20033;-61
2023/12/26 04:56:23;;;;;;;1.55;0.13;;;9.90;81.80;;;;;;5055779;28;20040;-61
2023/12/26 04:58:51;;;;;;;0.38;0.20;;;10.20;79.80;;;;;;5056670;28;20025;-61
2023/12/26 05:01:18;;;;;;;0.43;0.10;;;10.50;78.60;;;;;;5056588;28;20021;-61
2023/12/26 05:03:44;;;;;;;0.68;0.10;;;10.60;77.50;;;;;;5056816;28;20025;-61
2023/12/26 05:06:10;;;;;;;0.45;0.20;;;10.60;78.70;;;;;;5056696;28;20017;-61
2023/12/26 05:08:40;;;;;;;0.38;0.20;;;10.60;84.00;;;;;;5056207;28;20029;-62
2023/12/26 05:11:06;;;;;;;0.70;0.20;;;10.50;79.20;;;;;;5056175;28;20382;-62
2023/12/26 05:13:33;;;;;;;0.43;0.20;;;10.50;76.80;;;;;;5056832;28;20025;-61
2023/12/26 05:16:05;;;;;;;0.50;0.20;;;10.50;78.30;;;;;;5056331;28;20052;-62
2023/12/26 05:18:31;;;;;;;0.30;0.30;;;10.50;77.00;;;;;;5056444;28;20044;-62
2023/12/26 05:20:58;;;;;;;1.05;0.20;;;10.50;80.90;;;;;;5055909;28;20033;-62
2023/12/26 05:23:24;;;;;;;0.65;0.30;;;10.40;79.00;;;;;;5056219;28;20029;-62
2023/12/26 05:25:50;;;;;;;1.30;0.17;;;10.40;76.00;;;;;;5056140;28;20032;-61
2023/12/26 05:28:15;;;;;;;0.35;0.10;;;10.40;81.80;;;;;;5056222;28;20029;-61
2023/12/26 05:30:41;;;;;;;0.22;0.20;;;10.30;83.80;;;;;;5056033;28;20104;-61
2023/12/26 05:33:07;;;;;;;1.80;0.30;;;10.10;83.20;;;;;;5056197;28;20033;-61
2023/12/26 05:35:32;;;;;;;1.02;0.40;;;10.10;77.50;;;;;;5055989;28;20059;-61
2023/12/26 05:37:58;;;;;;;0.20;0.20;;;10.30;76.30;;;;;;5055977;28;20491;-61
2023/12/26 05:40:23;;;;;;;0.75;0.20;;;9.30;79.80;;;;;;5054255;28;20032;-62
2023/12/26 05:42:49;;;;;;;0.82;0.20;;;10.30;76.60;;;;;;5054981;28;20025;-61
2023/12/26 05:45:16;;;;;;;0.75;0.40;;;10.40;75.60;;;;;;5055795;28;20424;-61
2023/12/26 05:47:43;;;;;;;0.63;0.30;;;10.60;74.10;;;;;;5055759;28;20175;-61
2023/12/26 05:50:09;;;;;;;1.58;0.82;;;10.90;72.30;;;;;;5055804;28;20025;-62
2023/12/26 05:52:34;;;;;;;1.20;0.50;;;11.00;72.90;;;;;;5055552;28;20057;-61
2023/12/26 05:55:00;;;;;;;1.33;0.38;;;11.00;71.80;;;;;;5055572;28;20036;-62
2023/12/26 05:57:26;;;;;;;0.30;0.30;;;11.00;72.40;;;;;;5055657;28;20039;-62
2023/12/26 05:59:53;;;;;;;0.30;0.30;;;11.00;72.40;;;;;;5055832;28;20404;-62
2023/12/26 06:02:18;;;;;;;0.80;0.40;;;10.90;73.90;;;;;;5055465;28;20032;-61
2023/12/26 06:04:44;;;;;;;1.17;0.28;;;10.90;73.00;;;;;;5055530;28;20033;-62
2023/12/26 06:07:11;;;;;;;0.65;0.20;;;10.80;75.80;;;;;;5055370;28;20025;-62
2023/12/26 06:09:37;;;;;;;0.95;0.30;;;10.70;73.20;;;;;;5055330;28;20115;-62
2023/12/26 06:12:04;;;;;;;0.95;0.63;;;10.60;73.70;;;;;;5055299;28;20503;-62
2023/12/26 06:14:29;;;;;;;0.45;0.28;;;10.60;74.30;;;;;;5055220;28;20365;-62
2023/12/26 06:16:55;;;;;;;2.05;0.25;;;10.60;73.50;;;;;;5055348;28;20032;-62
2023/12/26 06:19:21;;;;;;;0.30;0.30;;;10.60;71.80;;;;;;5053856;28;20541;-62
2023/12/26 06:21:47;;;;;;;1.02;0.43;;;10.60;71.90;;;;;;5053803;28;20139;-62
2023/12/26 06:24:12;;;;;;;3.80;0.30;;;10.60;74.20;;;;;;5055289;28;20116;-62
2023/12/26 06:26:38;;;;;;;0.55;0.35;;;10.60;75.90;;;;;;5055253;28;20104;-61
2023/12/26 06:29:04;;;;;;;2.40;0.35;;;10.50;74.60;;;;;;5053709;28;20036;-62
2023/12/26 06:31:30;;;;;;;0.63;0.15;;;10.40;78.70;;;;;;5054146;28;20025;-62
2023/12/26 06:33:55;;;;;;;1.45;0.22;;;10.20;77.80;;;;;;5053590;28;20119;-62
2023/12/26 06:36:21;;;;;;;0.45;0.30;;;10.20;75.90;;;;;;5055019;28;20404;-62
2023/12/26 06:38:47;;;;;;;1.10;0.50;;;10.20;77.10;;;;;;5053507;28;20159;-62
2023/12/26 06:41:14;;;;;;;1.80;0.40;;;10.30;76.10;;;;;;5054747;28;20539;-62
2023/12/26 06:43:39;;;;;;;1.17;0.50;;;10.40;73.50;;;;;;5054934;28;20037;-61
2023/12/26 06:46:05;;;;;;;0.55;0.40;;;10.50;72.40;;;;;;5054624;28;20021;-62
2023/12/26 06:48:31;;;;;;;0.57;0.35;;;10.60;73.10;;;;;;5054583;28;20074;-62
2023/12/26 06:50:57;;;;;;;0.90;0.38;;;10.50;75.00;;;;;;5054803;28;20025;-62
2023/12/26 06:53:23;;;;;;;0.52;0.50;;;10.40;74.30;;;;;;5054653;28;20083;-62
2023/12/26 06:55:48;;;;;;;1.70;0.40;;;10.50;73.00;;;;;;5054391;28;20017;-62
2023/12/26 06:58:14;;;;;;;1.70;0.47;;;10.50;72.40;;;;;;5052750;28;20025;-62
2023/12/26 07:00:40;;;;;;;0.40;0.40;;;10.70;72.50;;;;;;5054373;28;20078;-62
2023/12/26 07:03:05;;;;;;;0.85;0.50;;;10.70;70.60;;;;;;5054289;28;20029;-62
2023/12/26 07:05:31;;;;;;;0.88;0.75;;;11.00;69.70;;;;;;5053048;28;20086;-62
2023/12/26 07:07:57;;;;;;;1.73;0.70;;;11.10;69.00;;;;;;5054125;28;20067;-62
2023/12/26 07:10:22;;;;;;;3.80;0.75;;;11.30;68.80;;;;;;5054237;28;20100;-62
2023/12/26 07:12:48;;;;;;;1.02;0.30;;;11.40;69.00;;;;;;5054296;28;20025;-61
2023/12/26 07:15:13;;;;;;;0.55;0.20;;;11.50;68.00;;;;;;5054150;28;20059;-62
2023/12/26 07:17:39;;;;;;;0.20;0.20;;;11.60;68.00;;;;;;5054059;28;20028;-62
2023/12/26 07:20:08;;;;;;;0.35;0.20;;;11.70;67.60;;;;;;5054032;28;20380;-62
2023/12/26 07:22:34;;;;;;;2.13;0.38;;;11.80;67.50;;;;;;5054012;28;20029;-62
2023/12/26 07:24:59;;;;;;;0.98;0.22;;;11.80;67.40;;;;;;5052458;28;20078;-62
2023/12/26 07:27:25;;;;;;;0.40;0.40;;;11.90;66.80;;;;;;5054096;28;20107;-62
2023/12/26 07:29:51;;;;;;;0.40;0.40;;;11.90;66.80;;;;;;5053920;28;20021;-62
2023/12/26 07:32:19;;;;;;;0.32;0.30;;;11.90;66.80;;;;;;5053600;28;20029;-61
2023/12/26 07:34:46;;;;;;;0.30;0.28;;;11.90;67.40;;;;;;5054023;28;20024;-62
2023/12/26 07:37:12;;;;;;;0.52;0.50;;;11.90;67.40;;;;;;5052470;28;20033;-62
2023/12/26 07:39:37;;;;;;;1.75;0.20;;;11.80;67.70;;;;;;5053795;28;20112;-62
2023/12/26 07:42:03;;;;;;;0.50;0.40;;;11.70;67.90;;;;;;5053777;28;20029;-62
2023/12/26 07:44:29;;;;;;;0.82;0.40;;;11.70;67.90;;;;;;5053739;28;20029;-62
2023/12/26 07:46:54;;;;;;;0.73;0.40;;;11.70;68.30;;;;;;5053719;28;20031;-62
2023/12/26 07:49:20;;;;;;;0.93;0.75;;;11.60;68.90;;;;;;5053511;28;20025;-64
2023/12/26 07:51:46;;;;;;;2.60;0.52;;;11.60;68.60;;;;;;5053052;28;20107;-59
2023/12/26 07:54:11;;;;;;;1.10;0.30;;;11.60;73.10;;;;;;5054594;28;20436;-62
2023/12/26 07:56:38;;;;;;;1.52;0.43;;;11.80;71.00;;;;;;5054291;28;20100;-63
2023/12/26 07:59:04;;;;;;;2.03;0.40;;;11.80;69.30;;;;;;5052640;28;20068;-63
2023/12/26 08:01:31;;;;;;;0.80;0.50;;;11.70;69.20;;;;;;5054126;28;20334;-62
2023/12/26 08:03:57;;;;;;;1.75;0.40;;;11.60;69.40;;;;;;5052583;28;20377;-63
2023/12/26 08:06:26;;;;;;;1.80;0.60;;;11.60;69.80;;;;;;5053526;28;20017;-63
2023/12/26 08:08:52;;;;;;;0.88;0.47;;;11.50;70.00;;;;;;5053601;28;20025;-63
2023/12/26 08:11:20;;;;;;;1.27;0.50;;;11.50;70.20;;;;;;5053505;28;20479;-62
2023/12/26 08:13:45;;;;;;;0.70;0.52;;;11.50;70.40;;;;;;5053544;28;20060;-62
2023/12/26 08:16:11;;;;;;;1.55;0.40;;;11.50;70.80;;;;;;5053459;28;20033;-62
2023/12/26 08:18:36;;;;;;;1.13;0.57;;;11.40;70.70;;;;;;5052029;28;20029;-62
2023/12/26 08:21:03;;;;;;;1.42;0.47;;;11.40;70.70;;;;;;5053135;28;20035;-62
2023/12/26 08:23:28;;;;;;;0.55;0.40;;;11.40;71.30;;;;;;5052097;28;20032;-63
2023/12/26 08:25:55;;;;;;;2.38;0.30;;;11.50;71.10;;;;;;5053709;28;20419;-62
2023/12/26 08:28:21;;;;;;;0.73;0.30;;;11.50;70.80;;;;;;5053414;28;20044;-63
2023/12/26 08:30:46;;;;;;;0.93;0.30;;;11.50;70.70;;;;;;5053358;28;20025;-63
2023/12/26 08:33:14;;;;;;;0.77;0.40;;;11.50;70.50;;;;;;5053257;28;20044;-63
2023/12/26 08:35:41;;;;;;;0.60;0.40;;;11.50;70.30;;;;;;5052053;28;20029;-62
2023/12/26 08:38:06;;;;;;;2.17;0.80;;;11.50;69.80;;;;;;5053755;28;20167;-62
2023/12/26 08:40:32;;;;;;;0.63;0.30;;;11.60;69.30;;;;;;5053220;28;20484;-63
2023/12/26 08:42:57;;;;;;;0.40;0.30;;;11.70;69.50;;;;;;5053391;28;20060;-63
2023/12/26 08:45:23;;;;;;;2.90;0.30;;;11.70;69.00;;;;;;5053683;28;20408;-63
2023/12/26 08:47:49;;;;;;;1.85;1.05;;;11.80;68.80;;;;;;5053212;28;20029;-62
2023/12/26 08:50:15;;;;;;;0.35;0.20;;;11.80;69.10;;;;;;5053344;28;20060;-63
2023/12/26 08:52:41;;;;;;;1.25;0.20;;;11.80;69.40;;;;;;5052915;28;20500;-63
2023/12/26 08:55:06;;;;;;;1.08;0.45;;;11.80;70.20;;;;;;5054139;28;20100;-63
2023/12/26 08:57:32;;;;;;;2.10;1.08;;;11.80;70.80;;;;;;5055322;28;20036;-63
2023/12/26 08:59:59;;;;;;;0.85;0.30;;;11.70;71.30;;;;;;5055952;28;20029;-64
2023/12/26 09:02:25;;;;;;;0.60;0.20;;;11.60;72.00;;;;;;5056849;28;20017;-63
2023/12/26 09:04:51;;;;;;;0.40;0.28;;;11.60;72.60;;;;;;5056833;28;20025;-63
2023/12/26 09:07:17;;;;;;;1.35;0.32;;;11.50;73.30;;;;;;5055208;28;20033;-63
2023/12/26 09:09:42;;;;;;;0.70;0.40;;;11.40;74.00;;;;;;5055159;28;20032;-63
2023/12/26 09:12:08;;;;;;;0.20;0.10;;;11.40;74.90;;;;;;5056193;28;20128;-63
2023/12/26 09:14:35;;;;;;;0.28;0.28;;;11.30;75.30;;;;;;5056365;28;20078;-63
2023/12/26 09:17:01;;;;;;;4.85;0.68;;;11.30;76.20;;;;;;5056421;28;20021;-63
2023/12/26 09:19:28;;;;;;;1.17;0.38;;;11.20;77.40;;;;;;5056286;28;20036;-63
2023/12/26 09:21:54;;;;;;;1.02;0.30;;;11.10;78.30;;;;;;5056220;28;20047;-63
2023/12/26 09:24:20;;;;;;;0.68;0.28;;;11.00;79.40;;;;;;5056434;28;20525;-63
2023/12/26 09:26:45;;;;;;;0.82;0.45;;;10.90;80.40;;;;;;5054934;28;20032;-63
2023/12/26 09:29:11;;;;;;;2.38;0.40;;;10.80;81.50;;;;;;5056122;28;20029;-62
2023/12/26 09:31:37;;;;;;;1.73;0.35;;;10.80;82.70;;;;;;5056085;28;20032;-63
2023/12/26 09:34:02;;;;;;;3.05;0.50;;;10.70;83.60;;;;;;5056244;28;20067;-63
2023/12/26 09:36:28;;;;;;;1.33;0.40;;;10.60;84.30;;;;;;5056089;28;20076;-63
2023/12/26 09:38:53;;;;;;;0.90;0.50;;;10.60;84.60;;;;;;5055652;28;20546;-63
2023/12/26 09:41:26;;;;;;;2.90;0.68;;;10.50;84.90;;;;;;5056320;28;20049;-63
2023/12/26 09:43:52;;;;;;;3.83;0.50;;;10.50;85.30;;;;;;5055891;28;20051;-63
2023/12/26 09:46:18;;;;;;;1.58;0.32;;;10.50;85.70;;;;;;5056280;28;20029;-63
2023/12/26 09:48:45;;;;;;;0.50;0.30;;;10.40;86.20;;;;;;5055791;28;20064;-75
2023/12/26 09:51:19;;;;;;;1.08;0.30;;;10.40;86.40;;;;;;5054645;28;20024;-63
2023/12/26 09:53:45;;;;;;;1.27;0.40;;;10.30;87.20;;;;;;5055864;28;20465;-63
2023/12/26 09:56:11;;;;;;;1.92;0.40;;;10.20;87.80;;;;;;5054771;28;20036;-63
2023/12/26 09:58:43;;;;;;;2.72;0.57;;;10.20;88.20;;;;;;5055210;28;20069;-63
2023/12/26 10:01:11;;;;;;;1.85;1.23;;;10.20;88.90;;;;;;5054652;28;20401;-63
2023/12/26 10:03:38;;;;;;;2.17;0.80;;;10.10;89.60;;;;;;5055756;28;20029;-63
2023/12/26 10:06:04;;;;;;;1.48;0.60;;;10.10;90.00;;;;;;5054550;28;20048;-63
2023/12/26 10:08:30;;;;;;;2.13;0.93;;;10.00;90.30;;;;;;5055257;28;20068;-63
2023/12/26 10:10:56;;;;;;;3.70;0.73;;;10.00;90.60;;;;;;5055188;28;20099;-63
2023/12/26 10:13:21;;;;;;;2.47;0.70;;;10.00;90.90;;;;;;5055349;28;20029;-63
2023/12/26 10:15:47;;;;;;;1.33;0.70;;;10.00;91.10;;;;;;5054993;28;20112;-63
2023/12/26 10:18:14;;;;;;;5.25;0.47;;;9.90;91.30;;;;;;5055276;28;20475;-63
2023/12/26 10:20:39;;;;;;;2.45;0.50;;;9.90;91.50;;;;;;5055542;28;20096;-63
2023/12/26 10:23:05;;;;;;;1.23;0.30;;;9.90;91.70;;;;;;5054771;28;20064;-63
2023/12/26 10:25:31;;;;;;;2.60;0.50;;;10.00;91.90;;;;;;5055195;28;20055;-63
2023/12/26 10:27:58;;;;;;;1.77;0.60;;;10.00;92.20;;;;;;5053688;28;20029;-63
2023/12/26 10:30:26;;;;;;;2.30;0.40;;;9.90;92.20;;;;;;5054930;28;20117;-64
2023/12/26 10:33:02;;;;;;;1.75;0.70;;;9.90;92.30;;;;;;5054930;28;20057;-63
2023/12/26 10:35:28;;;;;;;0.95;0.68;;;9.90;92.50;;;;;;5053581;28;20087;-63
2023/12/26 10:37:55;;;;;;;4.30;0.52;;;10.00;92.60;;;;;;5053514;28;20037;-63
2023/12/26 10:40:21;;;;;;;3.08;0.57;;;10.00;92.60;;;;;;5055325;28;20112;-63
2023/12/26 10:42:50;;;;;;;5.10;1.05;;;10.00;92.60;;;;;;5054110;28;20056;-63
2023/12/26 10:45:18;;;;;;;1.45;0.52;;;10.10;92.70;;;;;;5053734;28;20029;-63
2023/12/26 10:47:48;;;;;;;4.93;0.88;;;10.10;92.80;;;;;;5054975;28;20036;-63
2023/12/26 10:50:16;;;;;;;5.15;0.70;;;10.10;92.90;;;;;;5054349;28;20432;-63
2023/12/26 10:53:04;;;;;;;1.20;0.45;;;10.10;93.00;;;;;;5054496;28;20045;-63
2023/12/26 10:55:33;;;;;;;1.52;0.50;;;10.10;93.10;;;;;;5055191;28;20107;-63
2023/12/26 10:58:23;;;;;;;6.35;0.88;;;10.10;93.20;;;;;;5054777;28;20033;-63
2023/12/26 11:00:50;;;;;;;1.80;0.60;;;10.10;93.30;;;;;;5054780;28;20029;-63
2023/12/26 13:52:14;;;;;;;3.25;1.85;;;10.30;96.90;;;;;;5045181;28;20071;-62
2023/12/26 13:55:18;;;;;;;2.75;0.57;;;10.30;97.10;;;;;;5055362;28;20465;-62
2023/12/26 13:58:21;;;;;;;0.93;0.60;;;10.20;97.40;;;;;;5052948;28;20044;-62
2023/12/26 14:01:24;;;;;;;1.80;0.80;;;10.20;97.70;;;;;;5055319;28;20029;-63
2023/12/26 14:04:27;;;;;;;2.63;0.60;;;10.20;97.90;;;;;;5054192;28;20021;-62
2023/12/26 14:07:31;;;;;;;3.60;1.05;;;10.10;98.20;;;;;;5055279;28;20024;-63
2023/12/26 14:10:34;;;;;;;5.05;0.77;;;10.10;98.30;;;;;;5055275;28;20369;-62
2023/12/26 14:13:37;;;;;;;2.10;0.40;;;10.10;98.40;;;;;;5055141;28;20098;-62
2023/12/26 14:16:40;;;;;;;3.17;1.00;;;10.10;98.60;;;;;;5055220;28;20028;-62
2023/12/26 14:19:43;;;;;;;2.33;0.70;;;10.10;98.70;;;;;;5055048;28;20480;-62
2023/12/26 14:22:46;;;;;;;4.57;0.70;;;10.10;98.60;;;;;;5055038;28;20029;-62
2023/12/26 14:25:49;;;;;;;2.17;0.70;;;10.10;98.60;;;;;;5055007;28;20074;-62
2023/12/26 14:28:52;;;;;;;2.25;0.70;;;10.10;98.60;;;;;;5055174;28;20033;-62
2023/12/26 14:31:55;;;;;;;3.47;1.02;;;10.10;98.50;;;;;;5054861;28;20029;-62
2023/12/26 14:34:58;;;;;;;3.08;0.60;;;10.10;98.60;;;;;;5054900;28;20082;-62
2023/12/26 14:38:02;;;;;;;7.65;1.45;;;10.10;98.70;;;;;;5053504;28;20032;-62
2023/12/26 14:41:05;;;;;;;2.28;0.57;;;10.10;98.70;;;;;;5054689;28;20025;-62
2023/12/26 14:44:08;;;;;;;2.97;0.70;;;10.10;98.80;;;;;;5053429;28;20116;-62
2023/12/26 14:47:11;;;;;;;3.90;0.73;;;10.10;98.90;;;;;;5054249;28;20033;-63
2023/12/26 14:50:14;;;;;;;1.48;0.77;;;10.10;99.10;;;;;;5054496;28;20033;-62
2023/12/26 14:53:17;;;;;;;5.85;0.63;;;10.10;99.00;;;;;;5053340;28;20515;-61
2023/12/26 14:56:20;;;;;;;5.43;0.70;;;10.20;99.00;;;;;;5053160;28;20025;-63
2023/12/26 14:59:23;;;;;;;2.55;0.63;;;10.20;98.90;;;;;;5054239;28;20064;-62
2023/12/26 15:02:01;;;;;;;1.92;0.63;;;10.20;98.90;;;;;;5052792;28;20029;-63
2023/12/26 15:04:27;;;;;;;2.42;0.60;;;10.20;98.90;;;;;;5053430;28;20102;-62
2023/12/26 15:06:55;;;;;;;3.13;0.70;;;10.20;99.00;;;;;;5054190;28;20027;-62
2023/12/26 15:09:22;;;;;;;3.20;0.88;;;10.30;99.30;;;;;;5053049;28;20047;-62
2023/12/26 15:11:47;;;;;;;3.38;0.80;;;10.40;99.20;;;;;;5052395;28;20559;-62
2023/12/26 15:14:13;;;;;;;2.60;0.68;;;10.40;99.30;;;;;;5052722;28;20102;-63
2023/12/26 15:16:39;;;;;;;4.43;0.68;;;10.50;99.20;;;;;;5054013;28;20021;-62
2023/12/26 15:19:05;;;;;;;4.13;0.77;;;10.50;99.00;;;;;;5054148;28;20472;-65
2023/12/26 15:21:30;;;;;;;2.10;0.50;;;10.50;99.20;;;;;;5053734;28;20094;-62
2023/12/26 15:23:56;;;;;;;2.03;0.55;;;10.50;99.00;;;;;;5054045;28;20024;-62
2023/12/26 15:26:22;;;;;;;0.85;0.40;;;10.50;99.00;;;;;;5052826;28;20029;-62
2023/12/26 15:28:48;;;;;;;2.90;0.63;;;10.40;99.00;;;;;;5052570;28;20083;-61
2023/12/26 15:31:15;;;;;;;1.85;0.50;;;10.40;99.20;;;;;;5054215;28;20025;-62
2023/12/26 15:33:47;;;;;;;1.25;0.47;;;10.40;99.40;;;;;;5053928;28;20033;-62
2023/12/26 15:36:21;;;;;;;2.33;0.30;;;10.50;99.30;;;;;;5053963;28;20056;-63
2023/12/26 15:38:47;;;;;;;1.30;0.35;;;10.50;99.10;;;;;;5053987;28;20033;-62
2023/12/26 15:41:13;;;;;;;3.10;0.68;;;10.60;99.00;;;;;;5052422;28;20116;-63
2023/12/26 15:43:39;;;;;;;0.98;0.60;;;10.60;99.10;;;;;;5053727;28;20124;-63
2023/12/26 15:46:25;;;;;;;2.33;0.70;;;10.60;99.10;;;;;;5054011;28;20039;-62